sensor_id;sensor_type;location;lat;lon;timestamp;temperature;humidity
6948;DHT22;3513;47.664;9.162;2023-03-01T00:02:19;1.50;91.80
6948;DHT22;3513;47.664;9.162;2023-03-01T00:04:45;1.50;91.80
6948;DHT22;3513;47.664;9.162;2023-03-01T00:07:11;1.60;91.80
6948;DHT22;3513;47.664;9.162;2023-03-01T00:09:37;1.60;91.70
6948;DHT22;3513;47.664;9.162;2023-03-01T00:12:03;1.60;91.70
6948;DHT22;3513;47.664;9.162;2023-03-01T00:14:29;1.60;91.60
6948;DHT22;3513;47.664;9.162;2023-03-01T00:16:54;1.70;91.70
6948;DHT22;3513;47.664;9.162;2023-03-01T00:19:20;1.70;91.60
6948;DHT22;3513;47.664;9.162;2023-03-01T00:21:48;1.70;91.60
6948;DHT22;3513;47.664;9.162;2023-03-01T00:24:14;1.70;91.60
6948;DHT22;3513;47.664;9.162;2023-03-01T00:26:39;1.70;91.60
6948;DHT22;3513;47.664;9.162;2023-03-01T00:29:05;1.70;91.50
6948;DHT22;3513;47.664;9.162;2023-03-01T00:31:32;1.70;91.50
6948;DHT22;3513;47.664;9.162;2023-03-01T00:34:01;1.80;91.30
6948;DHT22;3513;47.664;9.162;2023-03-01T00:36:29;1.80;91.30
6948;DHT22;3513;47.664;9.162;2023-03-01T00:38:55;1.80;91.40
6948;DHT22;3513;47.664;9.162;2023-03-01T00:41:21;1.80;91.40
6948;DHT22;3513;47.664;9.162;2023-03-01T00:43:48;1.80;91.40
6948;DHT22;3513;47.664;9.162;2023-03-01T00:46:19;1.80;91.30
6948;DHT22;3513;47.664;9.162;2023-03-01T00:48:45;1.80;91.40
6948;DHT22;3513;47.664;9.162;2023-03-01T00:51:13;1.90;91.40
6948;DHT22;3513;47.664;9.162;2023-03-01T00:53:39;1.90;91.50
6948;DHT22;3513;47.664;9.162;2023-03-01T00:56:06;1.90;91.30
6948;DHT22;3513;47.664;9.162;2023-03-01T00:58:32;1.90;91.20
6948;DHT22;3513;47.664;9.162;2023-03-01T01:00:58;1.90;91.30
6948;DHT22;3513;47.664;9.162;2023-03-01T01:03:24;1.90;91.30
6948;DHT22;3513;47.664;9.162;2023-03-01T01:05:53;1.90;91.10
6948;DHT22;3513;47.664;9.162;2023-03-01T01:08:20;1.90;91.30
6948;DHT22;3513;47.664;9.162;2023-03-01T01:10:46;2.00;91.30
6948;DHT22;3513;47.664;9.162;2023-03-01T01:13:12;2.00;91.00
6948;DHT22;3513;47.664;9.162;2023-03-01T01:15:37;2.00;91.10
6948;DHT22;3513;47.664;9.162;2023-03-01T01:18:03;2.00;91.00
6948;DHT22;3513;47.664;9.162;2023-03-01T01:20:29;2.00;91.10
6948;DHT22;3513;47.664;9.162;2023-03-01T01:22:55;2.00;91.20
6948;DHT22;3513;47.664;9.162;2023-03-01T01:25:21;2.00;91.20
6948;DHT22;3513;47.664;9.162;2023-03-01T01:27:46;2.00;91.10
6948;DHT22;3513;47.664;9.162;2023-03-01T01:30:12;2.00;91.10
6948;DHT22;3513;47.664;9.162;2023-03-01T01:32:38;2.00;91.20
6948;DHT22;3513;47.664;9.162;2023-03-01T01:35:04;2.00;91.30
6948;DHT22;3513;47.664;9.162;2023-03-01T01:37:30;2.00;91.40
6948;DHT22;3513;47.664;9.162;2023-03-01T01:39:59;2.00;91.40
6948;DHT22;3513;47.664;9.162;2023-03-01T01:42:26;2.00;91.40
6948;DHT22;3513;47.664;9.162;2023-03-01T01:47:59;2.00;91.50
6948;DHT22;3513;47.664;9.162;2023-03-01T01:50:26;2.00;91.30
6948;DHT22;3513;47.664;9.162;2023-03-01T01:52:53;2.00;91.20
6948;DHT22;3513;47.664;9.162;2023-03-01T01:55:23;2.00;91.20
6948;DHT22;3513;47.664;9.162;2023-03-01T01:57:57;2.00;91.30
6948;DHT22;3513;47.664;9.162;2023-03-01T02:00:26;2.00;91.20
6948;DHT22;3513;47.664;9.162;2023-03-01T02:02:56;2.00;91.20
6948;DHT22;3513;47.664;9.162;2023-03-01T02:05:32;2.00;91.40
6948;DHT22;3513;47.664;9.162;2023-03-01T02:08:00;2.00;91.40
6948;DHT22;3513;47.664;9.162;2023-03-01T02:10:27;2.00;91.50
6948;DHT22;3513;47.664;9.162;2023-03-01T02:12:54;2.00;91.40
6948;DHT22;3513;47.664;9.162;2023-03-01T02:15:22;2.00;91.40
6948;DHT22;3513;47.664;9.162;2023-03-01T02:17:48;2.00;91.40
6948;DHT22;3513;47.664;9.162;2023-03-01T02:20:26;2.00;91.40
6948;DHT22;3513;47.664;9.162;2023-03-01T02:22:55;2.00;91.50
6948;DHT22;3513;47.664;9.162;2023-03-01T02:25:46;2.00;91.40
6948;DHT22;3513;47.664;9.162;2023-03-01T02:30:42;2.10;91.70
6948;DHT22;3513;47.664;9.162;2023-03-01T02:33:29;2.00;91.30
6948;DHT22;3513;47.664;9.162;2023-03-01T02:36:06;2.00;91.50
6948;DHT22;3513;47.664;9.162;2023-03-01T02:38:33;2.00;91.50
6948;DHT22;3513;47.664;9.162;2023-03-01T02:40:59;2.00;91.60
6948;DHT22;3513;47.664;9.162;2023-03-01T02:43:31;2.00;91.70
6948;DHT22;3513;47.664;9.162;2023-03-01T02:46:02;2.00;91.80
6948;DHT22;3513;47.664;9.162;2023-03-01T02:48:27;2.00;91.70
6948;DHT22;3513;47.664;9.162;2023-03-01T02:51:02;2.10;91.80
6948;DHT22;3513;47.664;9.162;2023-03-01T02:53:39;2.10;91.80
6948;DHT22;3513;47.664;9.162;2023-03-01T02:56:07;2.10;91.90
6948;DHT22;3513;47.664;9.162;2023-03-01T02:58:39;2.10;91.80
6948;DHT22;3513;47.664;9.162;2023-03-01T03:01:11;2.10;91.90
6948;DHT22;3513;47.664;9.162;2023-03-01T03:03:39;2.10;92.00
6948;DHT22;3513;47.664;9.162;2023-03-01T03:06:04;2.10;91.90
6948;DHT22;3513;47.664;9.162;2023-03-01T03:08:30;2.00;92.00
6948;DHT22;3513;47.664;9.162;2023-03-01T03:10:56;2.00;92.00
6948;DHT22;3513;47.664;9.162;2023-03-01T03:13:21;2.00;92.10
6948;DHT22;3513;47.664;9.162;2023-03-01T03:15:47;2.10;92.10
6948;DHT22;3513;47.664;9.162;2023-03-01T03:18:15;2.10;92.10
6948;DHT22;3513;47.664;9.162;2023-03-01T03:20:42;2.00;92.10
6948;DHT22;3513;47.664;9.162;2023-03-01T03:23:08;2.10;92.40
6948;DHT22;3513;47.664;9.162;2023-03-01T03:25:34;2.10;92.40
6948;DHT22;3513;47.664;9.162;2023-03-01T03:28:03;2.10;92.40
6948;DHT22;3513;47.664;9.162;2023-03-01T03:30:36;2.00;92.30
6948;DHT22;3513;47.664;9.162;2023-03-01T03:33:05;2.00;92.30
6948;DHT22;3513;47.664;9.162;2023-03-01T03:35:33;2.00;92.30
6948;DHT22;3513;47.664;9.162;2023-03-01T03:38:04;2.00;92.40
6948;DHT22;3513;47.664;9.162;2023-03-01T03:40:42;2.10;92.40
6948;DHT22;3513;47.664;9.162;2023-03-01T03:43:10;2.00;92.40
6948;DHT22;3513;47.664;9.162;2023-03-01T03:45:37;2.00;92.40
6948;DHT22;3513;47.664;9.162;2023-03-01T03:48:05;2.00;92.50
6948;DHT22;3513;47.664;9.162;2023-03-01T03:50:31;2.00;92.60
6948;DHT22;3513;47.664;9.162;2023-03-01T03:52:57;1.90;92.40
6948;DHT22;3513;47.664;9.162;2023-03-01T03:55:23;2.00;92.60
6948;DHT22;3513;47.664;9.162;2023-03-01T03:57:53;2.00;92.50
6948;DHT22;3513;47.664;9.162;2023-03-01T04:00:21;1.90;92.50
6948;DHT22;3513;47.664;9.162;2023-03-01T04:02:47;1.90;92.50
6948;DHT22;3513;47.664;9.162;2023-03-01T04:05:15;1.90;92.50
6948;DHT22;3513;47.664;9.162;2023-03-01T04:07:41;1.90;92.30
6948;DHT22;3513;47.664;9.162;2023-03-01T04:10:17;2.30;92.70
6948;DHT22;3513;47.664;9.162;2023-03-01T04:12:43;1.90;92.40
6948;DHT22;3513;47.664;9.162;2023-03-01T04:15:10;1.90;92.50
6948;DHT22;3513;47.664;9.162;2023-03-01T04:17:46;1.80;92.40
6948;DHT22;3513;47.664;9.162;2023-03-01T04:20:17;1.80;92.50
6948;DHT22;3513;47.664;9.162;2023-03-01T04:22:44;1.80;92.70
6948;DHT22;3513;47.664;9.162;2023-03-01T04:25:13;1.80;92.80
6948;DHT22;3513;47.664;9.162;2023-03-01T04:27:40;1.80;92.80
6948;DHT22;3513;47.664;9.162;2023-03-01T04:30:07;1.70;92.60
6948;DHT22;3513;47.664;9.162;2023-03-01T04:32:33;1.70;92.70
6948;DHT22;3513;47.664;9.162;2023-03-01T04:34:59;1.70;92.90
6948;DHT22;3513;47.664;9.162;2023-03-01T04:37:25;1.70;93.00
6948;DHT22;3513;47.664;9.162;2023-03-01T04:39:51;1.70;93.10
6948;DHT22;3513;47.664;9.162;2023-03-01T04:42:17;1.70;92.90
6948;DHT22;3513;47.664;9.162;2023-03-01T04:44:43;1.80;93.10
6948;DHT22;3513;47.664;9.162;2023-03-01T04:47:09;1.70;93.10
6948;DHT22;3513;47.664;9.162;2023-03-01T04:49:35;1.80;93.20
6948;DHT22;3513;47.664;9.162;2023-03-01T04:52:01;1.80;93.30
6948;DHT22;3513;47.664;9.162;2023-03-01T04:54:31;1.80;93.40
6948;DHT22;3513;47.664;9.162;2023-03-01T04:56:57;1.80;93.50
6948;DHT22;3513;47.664;9.162;2023-03-01T04:59:23;1.80;93.40
6948;DHT22;3513;47.664;9.162;2023-03-01T05:01:53;1.80;93.30
6948;DHT22;3513;47.664;9.162;2023-03-01T05:04:21;1.80;93.50
6948;DHT22;3513;47.664;9.162;2023-03-01T05:06:47;1.80;93.60
6948;DHT22;3513;47.664;9.162;2023-03-01T05:09:12;1.80;93.40
6948;DHT22;3513;47.664;9.162;2023-03-01T05:11:38;1.80;93.50
6948;DHT22;3513;47.664;9.162;2023-03-01T05:14:05;1.80;93.70
6948;DHT22;3513;47.664;9.162;2023-03-01T05:16:31;1.80;93.70
6948;DHT22;3513;47.664;9.162;2023-03-01T05:18:57;1.80;93.60
6948;DHT22;3513;47.664;9.162;2023-03-01T05:21:23;1.80;93.30
6948;DHT22;3513;47.664;9.162;2023-03-01T05:23:49;1.80;93.50
6948;DHT22;3513;47.664;9.162;2023-03-01T05:26:17;1.80;93.70
6948;DHT22;3513;47.664;9.162;2023-03-01T05:28:43;1.80;94.00
6948;DHT22;3513;47.664;9.162;2023-03-01T05:31:08;1.80;93.70
6948;DHT22;3513;47.664;9.162;2023-03-01T05:33:38;1.90;93.80
6948;DHT22;3513;47.664;9.162;2023-03-01T05:36:05;1.90;94.00
6948;DHT22;3513;47.664;9.162;2023-03-01T05:38:31;1.90;93.90
6948;DHT22;3513;47.664;9.162;2023-03-01T05:40:57;1.90;93.70
6948;DHT22;3513;47.664;9.162;2023-03-01T05:43:22;1.90;93.70
6948;DHT22;3513;47.664;9.162;2023-03-01T05:45:48;1.80;93.70
6948;DHT22;3513;47.664;9.162;2023-03-01T05:48:14;1.90;93.80
6948;DHT22;3513;47.664;9.162;2023-03-01T05:50:42;1.90;93.70
6948;DHT22;3513;47.664;9.162;2023-03-01T05:53:14;1.90;93.70
6948;DHT22;3513;47.664;9.162;2023-03-01T05:55:41;1.90;93.90
6948;DHT22;3513;47.664;9.162;2023-03-01T05:58:10;1.90;93.80
6948;DHT22;3513;47.664;9.162;2023-03-01T06:00:36;1.90;93.70
6948;DHT22;3513;47.664;9.162;2023-03-01T06:03:02;1.90;93.60
6948;DHT22;3513;47.664;9.162;2023-03-01T06:05:29;1.90;93.50
6948;DHT22;3513;47.664;9.162;2023-03-01T06:07:55;1.90;93.60
6948;DHT22;3513;47.664;9.162;2023-03-01T06:10:21;1.90;93.50
6948;DHT22;3513;47.664;9.162;2023-03-01T06:12:48;1.90;93.60
6948;DHT22;3513;47.664;9.162;2023-03-01T06:15:16;1.90;93.70
6948;DHT22;3513;47.664;9.162;2023-03-01T06:17:44;1.80;93.70
6948;DHT22;3513;47.664;9.162;2023-03-01T06:20:14;1.80;93.80
6948;DHT22;3513;47.664;9.162;2023-03-01T06:22:40;1.80;93.80
6948;DHT22;3513;47.664;9.162;2023-03-01T06:25:07;3.20;94.30
6948;DHT22;3513;47.664;9.162;2023-03-01T06:27:33;1.80;93.80
6948;DHT22;3513;47.664;9.162;2023-03-01T06:29:58;1.80;93.90
6948;DHT22;3513;47.664;9.162;2023-03-01T06:32:24;1.70;93.60
6948;DHT22;3513;47.664;9.162;2023-03-01T06:34:50;1.70;93.70
6948;DHT22;3513;47.664;9.162;2023-03-01T06:37:16;1.80;93.90
6948;DHT22;3513;47.664;9.162;2023-03-01T06:39:41;1.80;93.90
6948;DHT22;3513;47.664;9.162;2023-03-01T06:42:08;1.70;93.90
6948;DHT22;3513;47.664;9.162;2023-03-01T06:44:35;1.80;94.10
6948;DHT22;3513;47.664;9.162;2023-03-01T06:47:01;1.80;94.00
6948;DHT22;3513;47.664;9.162;2023-03-01T06:49:27;1.80;94.00
6948;DHT22;3513;47.664;9.162;2023-03-01T06:51:52;1.80;94.00
6948;DHT22;3513;47.664;9.162;2023-03-01T06:54:18;1.80;94.10
6948;DHT22;3513;47.664;9.162;2023-03-01T06:56:47;1.80;94.10
6948;DHT22;3513;47.664;9.162;2023-03-01T06:59:13;1.80;94.00
6948;DHT22;3513;47.664;9.162;2023-03-01T07:01:39;1.80;94.10
6948;DHT22;3513;47.664;9.162;2023-03-01T07:04:04;1.80;93.90
6948;DHT22;3513;47.664;9.162;2023-03-01T07:06:30;1.90;94.10
6948;DHT22;3513;47.664;9.162;2023-03-01T07:08:56;1.90;93.80
6948;DHT22;3513;47.664;9.162;2023-03-01T07:11:21;1.80;93.80
6948;DHT22;3513;47.664;9.162;2023-03-01T07:13:47;1.90;94.20
6948;DHT22;3513;47.664;9.162;2023-03-01T07:16:13;1.90;94.10
6948;DHT22;3513;47.664;9.162;2023-03-01T07:18:40;1.80;93.90
6948;DHT22;3513;47.664;9.162;2023-03-01T07:21:11;1.80;94.00
6948;DHT22;3513;47.664;9.162;2023-03-01T07:23:37;1.90;94.60
6948;DHT22;3513;47.664;9.162;2023-03-01T07:26:03;2.00;95.40
6948;DHT22;3513;47.664;9.162;2023-03-01T07:28:28;2.20;95.00
6948;DHT22;3513;47.664;9.162;2023-03-01T07:30:54;2.20;93.60
6948;DHT22;3513;47.664;9.162;2023-03-01T07:33:20;2.20;93.50
6948;DHT22;3513;47.664;9.162;2023-03-01T07:35:46;2.10;93.40
6948;DHT22;3513;47.664;9.162;2023-03-01T07:38:11;2.10;93.40
6948;DHT22;3513;47.664;9.162;2023-03-01T07:40:37;2.10;93.50
6948;DHT22;3513;47.664;9.162;2023-03-01T07:43:02;2.10;93.70
6948;DHT22;3513;47.664;9.162;2023-03-01T07:45:28;2.10;93.70
6948;DHT22;3513;47.664;9.162;2023-03-01T07:47:55;2.10;93.90
6948;DHT22;3513;47.664;9.162;2023-03-01T07:50:22;2.10;94.00
6948;DHT22;3513;47.664;9.162;2023-03-01T07:52:48;2.10;93.70
6948;DHT22;3513;47.664;9.162;2023-03-01T07:55:15;2.10;93.80
6948;DHT22;3513;47.664;9.162;2023-03-01T07:57:41;2.10;93.60
6948;DHT22;3513;47.664;9.162;2023-03-01T08:00:09;2.10;93.50
6948;DHT22;3513;47.664;9.162;2023-03-01T08:02:35;2.10;93.70
6948;DHT22;3513;47.664;9.162;2023-03-01T08:05:01;2.10;93.70
6948;DHT22;3513;47.664;9.162;2023-03-01T08:07:27;2.10;93.80
6948;DHT22;3513;47.664;9.162;2023-03-01T08:09:52;2.10;93.40
6948;DHT22;3513;47.664;9.162;2023-03-01T08:12:18;2.10;93.40
6948;DHT22;3513;47.664;9.162;2023-03-01T08:14:43;2.10;93.70
6948;DHT22;3513;47.664;9.162;2023-03-01T08:17:09;2.20;93.70
6948;DHT22;3513;47.664;9.162;2023-03-01T08:19:35;2.20;93.40
6948;DHT22;3513;47.664;9.162;2023-03-01T08:22:03;2.20;93.40
6948;DHT22;3513;47.664;9.162;2023-03-01T08:24:29;2.20;93.40
6948;DHT22;3513;47.664;9.162;2023-03-01T08:26:55;2.30;93.50
6948;DHT22;3513;47.664;9.162;2023-03-01T08:29:21;2.30;93.30
6948;DHT22;3513;47.664;9.162;2023-03-01T08:31:47;3.00;93.40
6948;DHT22;3513;47.664;9.162;2023-03-01T08:34:15;2.30;93.00
6948;DHT22;3513;47.664;9.162;2023-03-01T08:36:43;2.30;93.20
6948;DHT22;3513;47.664;9.162;2023-03-01T08:39:10;2.30;93.30
6948;DHT22;3513;47.664;9.162;2023-03-01T08:41:37;2.70;93.20
6948;DHT22;3513;47.664;9.162;2023-03-01T08:44:03;2.40;93.30
6948;DHT22;3513;47.664;9.162;2023-03-01T08:46:33;2.40;93.00
6948;DHT22;3513;47.664;9.162;2023-03-01T08:48:59;2.50;93.00
6948;DHT22;3513;47.664;9.162;2023-03-01T08:51:26;2.50;93.10
6948;DHT22;3513;47.664;9.162;2023-03-01T08:53:51;2.50;92.80
6948;DHT22;3513;47.664;9.162;2023-03-01T08:56:18;2.50;92.40
6948;DHT22;3513;47.664;9.162;2023-03-01T08:58:48;2.50;92.70
6948;DHT22;3513;47.664;9.162;2023-03-01T09:01:18;2.60;92.80
6948;DHT22;3513;47.664;9.162;2023-03-01T09:03:44;2.60;92.80
6948;DHT22;3513;47.664;9.162;2023-03-01T09:06:11;2.60;92.60
6948;DHT22;3513;47.664;9.162;2023-03-01T09:08:38;3.10;92.70
6948;DHT22;3513;47.664;9.162;2023-03-01T09:11:06;2.60;92.30
6948;DHT22;3513;47.664;9.162;2023-03-01T09:13:32;2.70;92.50
6948;DHT22;3513;47.664;9.162;2023-03-01T09:15:59;2.70;92.50
6948;DHT22;3513;47.664;9.162;2023-03-01T09:18:25;2.90;92.60
6948;DHT22;3513;47.664;9.162;2023-03-01T09:20:51;2.70;92.50
6948;DHT22;3513;47.664;9.162;2023-03-01T09:23:17;1.80;92.00
6948;DHT22;3513;47.664;9.162;2023-03-01T09:25:42;2.80;92.50
6948;DHT22;3513;47.664;9.162;2023-03-01T09:28:08;2.80;92.30
6948;DHT22;3513;47.664;9.162;2023-03-01T09:30:33;2.80;92.10
6948;DHT22;3513;47.664;9.162;2023-03-01T09:32:59;2.80;92.10
6948;DHT22;3513;47.664;9.162;2023-03-01T09:35:25;2.80;92.20
6948;DHT22;3513;47.664;9.162;2023-03-01T09:37:51;2.90;92.30
6948;DHT22;3513;47.664;9.162;2023-03-01T09:40:20;2.90;92.10
6948;DHT22;3513;47.664;9.162;2023-03-01T09:42:56;2.90;91.60
6948;DHT22;3513;47.664;9.162;2023-03-01T09:45:29;2.90;91.70
6948;DHT22;3513;47.664;9.162;2023-03-01T09:47:58;2.80;91.60
6948;DHT22;3513;47.664;9.162;2023-03-01T09:50:28;2.80;91.40
6948;DHT22;3513;47.664;9.162;2023-03-01T09:53:12;2.80;91.40
6948;DHT22;3513;47.664;9.162;2023-03-01T09:56:00;2.70;91.60
6948;DHT22;3513;47.664;9.162;2023-03-01T09:58:47;2.70;91.70
6948;DHT22;3513;47.664;9.162;2023-03-01T10:09:21;2.80;91.60
6948;DHT22;3513;47.664;9.162;2023-03-01T10:11:52;2.80;91.40
6948;DHT22;3513;47.664;9.162;2023-03-01T10:17:26;2.90;91.60
6948;DHT22;3513;47.664;9.162;2023-03-01T10:19:53;3.00;91.60
6948;DHT22;3513;47.664;9.162;2023-03-01T10:22:22;3.00;91.60
6948;DHT22;3513;47.664;9.162;2023-03-01T10:24:51;3.00;91.20
6948;DHT22;3513;47.664;9.162;2023-03-01T10:27:22;3.10;91.10
6948;DHT22;3513;47.664;9.162;2023-03-01T10:30:15;3.50;91.30
6948;DHT22;3513;47.664;9.162;2023-03-01T10:32:43;3.00;90.80
6948;DHT22;3513;47.664;9.162;2023-03-01T10:35:24;3.10;90.70
6948;DHT22;3513;47.664;9.162;2023-03-01T10:38:08;3.10;90.80
6948;DHT22;3513;47.664;9.162;2023-03-01T10:40:36;3.10;90.30
6948;DHT22;3513;47.664;9.162;2023-03-01T10:43:04;3.10;90.60
6948;DHT22;3513;47.664;9.162;2023-03-01T10:45:36;3.10;90.70
6948;DHT22;3513;47.664;9.162;2023-03-01T10:48:23;3.20;90.90
6948;DHT22;3513;47.664;9.162;2023-03-01T10:53:26;3.10;90.40
6948;DHT22;3513;47.664;9.162;2023-03-01T10:56:05;3.10;90.30
6948;DHT22;3513;47.664;9.162;2023-03-01T10:58:33;3.00;90.50
6948;DHT22;3513;47.664;9.162;2023-03-01T11:01:03;4.10;91.20
6948;DHT22;3513;47.664;9.162;2023-03-01T11:03:34;3.20;90.40
6948;DHT22;3513;47.664;9.162;2023-03-01T11:06:02;3.20;90.40
6948;DHT22;3513;47.664;9.162;2023-03-01T11:08:42;3.20;90.40
6948;DHT22;3513;47.664;9.162;2023-03-01T11:11:31;3.30;90.40
6948;DHT22;3513;47.664;9.162;2023-03-01T11:13:58;3.30;90.30
6948;DHT22;3513;47.664;9.162;2023-03-01T11:16:36;4.50;90.60
6948;DHT22;3513;47.664;9.162;2023-03-01T11:21:39;3.30;89.80
6948;DHT22;3513;47.664;9.162;2023-03-01T11:24:09;3.30;88.80
6948;DHT22;3513;47.664;9.162;2023-03-01T11:26:39;3.40;89.40
6948;DHT22;3513;47.664;9.162;2023-03-01T11:29:26;3.30;89.50
6948;DHT22;3513;47.664;9.162;2023-03-01T11:31:56;3.30;89.60
6948;DHT22;3513;47.664;9.162;2023-03-01T11:37:33;3.30;88.50
6948;DHT22;3513;47.664;9.162;2023-03-01T11:43:33;3.30;89.20
6948;DHT22;3513;47.664;9.162;2023-03-01T11:51:25;3.30;89.50
6948;DHT22;3513;47.664;9.162;2023-03-01T11:59:45;3.30;90.30
6948;DHT22;3513;47.664;9.162;2023-03-01T12:05:19;3.30;88.40
6948;DHT22;3513;47.664;9.162;2023-03-01T12:10:45;3.30;88.50
6948;DHT22;3513;47.664;9.162;2023-03-01T12:19:01;3.50;87.50
6948;DHT22;3513;47.664;9.162;2023-03-01T12:22:09;3.50;87.60
6948;DHT22;3513;47.664;9.162;2023-03-01T12:25:07;3.50;86.80
6948;DHT22;3513;47.664;9.162;2023-03-01T12:44:37;3.40;87.40
6948;DHT22;3513;47.664;9.162;2023-03-01T12:49:53;3.50;86.90
6948;DHT22;3513;47.664;9.162;2023-03-01T12:52:41;3.60;86.30
6948;DHT22;3513;47.664;9.162;2023-03-01T12:55:29;3.60;86.20
6948;DHT22;3513;47.664;9.162;2023-03-01T13:00:57;3.60;86.30
6948;DHT22;3513;47.664;9.162;2023-03-01T13:06:19;3.70;86.00
6948;DHT22;3513;47.664;9.162;2023-03-01T13:09:03;3.70;85.40
6948;DHT22;3513;47.664;9.162;2023-03-01T13:11:30;3.70;85.70
6948;DHT22;3513;47.664;9.162;2023-03-01T13:16:51;3.70;86.30
6948;DHT22;3513;47.664;9.162;2023-03-01T13:19:25;3.70;85.70
6948;DHT22;3513;47.664;9.162;2023-03-01T13:21:53;3.70;85.40
6948;DHT22;3513;47.664;9.162;2023-03-01T13:24:37;3.70;85.10
6948;DHT22;3513;47.664;9.162;2023-03-01T13:29:54;3.70;85.60
6948;DHT22;3513;47.664;9.162;2023-03-01T13:32:35;3.70;85.60
6948;DHT22;3513;47.664;9.162;2023-03-01T13:37:52;3.70;85.20
6948;DHT22;3513;47.664;9.162;2023-03-01T13:42:52;3.80;85.50
6948;DHT22;3513;47.664;9.162;2023-03-01T13:45:41;3.80;85.60
6948;DHT22;3513;47.664;9.162;2023-03-01T13:48:17;3.80;85.60
6948;DHT22;3513;47.664;9.162;2023-03-01T13:50:53;3.90;86.00
6948;DHT22;3513;47.664;9.162;2023-03-01T13:53:22;3.90;84.90
6948;DHT22;3513;47.664;9.162;2023-03-01T13:55:58;3.90;85.00
6948;DHT22;3513;47.664;9.162;2023-03-01T13:58:30;3.90;84.80
6948;DHT22;3513;47.664;9.162;2023-03-01T14:03:26;3.80;84.10
6948;DHT22;3513;47.664;9.162;2023-03-01T14:06:06;3.80;84.90
6948;DHT22;3513;47.664;9.162;2023-03-01T14:08:32;3.70;84.80
6948;DHT22;3513;47.664;9.162;2023-03-01T14:16:35;3.70;85.80
6948;DHT22;3513;47.664;9.162;2023-03-01T14:19:28;3.70;85.70
6948;DHT22;3513;47.664;9.162;2023-03-01T14:22:19;3.80;86.60
6948;DHT22;3513;47.664;9.162;2023-03-01T14:24:55;3.80;86.10
6948;DHT22;3513;47.664;9.162;2023-03-01T14:27:25;3.80;85.90
6948;DHT22;3513;47.664;9.162;2023-03-01T14:29:57;3.90;85.90
6948;DHT22;3513;47.664;9.162;2023-03-01T14:32:31;3.90;85.60
6948;DHT22;3513;47.664;9.162;2023-03-01T14:34:58;3.90;85.90
6948;DHT22;3513;47.664;9.162;2023-03-01T14:37:34;3.90;85.80
6948;DHT22;3513;47.664;9.162;2023-03-01T14:40:04;4.00;86.00
6948;DHT22;3513;47.664;9.162;2023-03-01T14:42:34;3.90;84.70
6948;DHT22;3513;47.664;9.162;2023-03-01T14:45:02;3.90;85.00
6948;DHT22;3513;47.664;9.162;2023-03-01T14:47:34;4.00;85.30
6948;DHT22;3513;47.664;9.162;2023-03-01T14:50:24;3.80;84.30
6948;DHT22;3513;47.664;9.162;2023-03-01T14:52:53;3.80;84.90
6948;DHT22;3513;47.664;9.162;2023-03-01T14:55:24;3.70;85.00
6948;DHT22;3513;47.664;9.162;2023-03-01T14:57:51;3.80;85.70
6948;DHT22;3513;47.664;9.162;2023-03-01T15:00:26;3.70;85.50
6948;DHT22;3513;47.664;9.162;2023-03-01T15:02:54;3.70;86.20
6948;DHT22;3513;47.664;9.162;2023-03-01T15:05:31;3.70;86.40
6948;DHT22;3513;47.664;9.162;2023-03-01T15:08:00;3.80;86.40
6948;DHT22;3513;47.664;9.162;2023-03-01T15:10:30;3.80;86.60
6948;DHT22;3513;47.664;9.162;2023-03-01T15:12:56;4.00;86.40
6948;DHT22;3513;47.664;9.162;2023-03-01T15:18:04;3.70;86.00
6948;DHT22;3513;47.664;9.162;2023-03-01T15:20:31;3.60;86.40
6948;DHT22;3513;47.664;9.162;2023-03-01T15:23:01;3.70;86.90
6948;DHT22;3513;47.664;9.162;2023-03-01T15:25:29;4.60;87.60
6948;DHT22;3513;47.664;9.162;2023-03-01T15:27:56;3.70;86.60
6948;DHT22;3513;47.664;9.162;2023-03-01T15:30:29;5.10;87.30
6948;DHT22;3513;47.664;9.162;2023-03-01T15:33:29;3.70;85.80
6948;DHT22;3513;47.664;9.162;2023-03-01T15:36:00;3.80;86.10
6948;DHT22;3513;47.664;9.162;2023-03-01T15:38:33;3.80;86.00
6948;DHT22;3513;47.664;9.162;2023-03-01T15:41:02;3.90;85.80
6948;DHT22;3513;47.664;9.162;2023-03-01T15:43:46;3.80;85.80
6948;DHT22;3513;47.664;9.162;2023-03-01T15:46:22;3.80;85.90
6948;DHT22;3513;47.664;9.162;2023-03-01T15:49:00;3.80;86.00
6948;DHT22;3513;47.664;9.162;2023-03-01T15:51:34;3.90;86.20
6948;DHT22;3513;47.664;9.162;2023-03-01T15:54:05;3.90;86.30
6948;DHT22;3513;47.664;9.162;2023-03-01T15:56:31;3.90;86.00
6948;DHT22;3513;47.664;9.162;2023-03-01T15:58:59;3.90;85.70
6948;DHT22;3513;47.664;9.162;2023-03-01T16:01:25;5.10;87.00
6948;DHT22;3513;47.664;9.162;2023-03-01T16:03:52;4.90;86.80
6948;DHT22;3513;47.664;9.162;2023-03-01T16:06:19;3.90;86.00
6948;DHT22;3513;47.664;9.162;2023-03-01T16:08:45;3.90;86.10
6948;DHT22;3513;47.664;9.162;2023-03-01T16:11:15;5.50;87.80
6948;DHT22;3513;47.664;9.162;2023-03-01T16:13:41;4.00;86.20
6948;DHT22;3513;47.664;9.162;2023-03-01T16:16:08;4.50;86.70
6948;DHT22;3513;47.664;9.162;2023-03-01T16:18:38;3.90;86.30
6948;DHT22;3513;47.664;9.162;2023-03-01T16:21:04;4.00;86.70
6948;DHT22;3513;47.664;9.162;2023-03-01T16:23:30;3.90;86.60
6948;DHT22;3513;47.664;9.162;2023-03-01T16:25:59;4.00;86.50
6948;DHT22;3513;47.664;9.162;2023-03-01T16:28:25;4.00;86.40
6948;DHT22;3513;47.664;9.162;2023-03-01T16:30:52;4.10;86.20
6948;DHT22;3513;47.664;9.162;2023-03-01T16:33:17;5.30;87.50
6948;DHT22;3513;47.664;9.162;2023-03-01T16:35:43;4.10;86.20
6948;DHT22;3513;47.664;9.162;2023-03-01T16:38:10;4.80;87.10
6948;DHT22;3513;47.664;9.162;2023-03-01T16:40:35;4.00;86.70
6948;DHT22;3513;47.664;9.162;2023-03-01T16:43:01;4.50;87.60
6948;DHT22;3513;47.664;9.162;2023-03-01T16:45:33;3.80;87.20
6948;DHT22;3513;47.664;9.162;2023-03-01T16:48:01;4.30;88.20
6948;DHT22;3513;47.664;9.162;2023-03-01T16:50:26;5.20;89.40
6948;DHT22;3513;47.664;9.162;2023-03-01T16:52:52;3.60;88.20
6948;DHT22;3513;47.664;9.162;2023-03-01T16:55:18;3.50;88.50
6948;DHT22;3513;47.664;9.162;2023-03-01T16:57:43;3.40;88.90
6948;DHT22;3513;47.664;9.162;2023-03-01T17:00:11;3.40;89.40
6948;DHT22;3513;47.664;9.162;2023-03-01T17:02:39;3.30;89.50
6948;DHT22;3513;47.664;9.162;2023-03-01T17:05:05;3.30;89.80
6948;DHT22;3513;47.664;9.162;2023-03-01T17:07:31;3.30;89.90
6948;DHT22;3513;47.664;9.162;2023-03-01T17:10:01;3.30;90.10
6948;DHT22;3513;47.664;9.162;2023-03-01T17:12:27;3.30;90.20
6948;DHT22;3513;47.664;9.162;2023-03-01T17:14:53;3.30;90.10
6948;DHT22;3513;47.664;9.162;2023-03-01T17:17:19;3.30;90.20
6948;DHT22;3513;47.664;9.162;2023-03-01T17:19:45;3.30;90.10
6948;DHT22;3513;47.664;9.162;2023-03-01T17:22:11;3.30;90.20
6948;DHT22;3513;47.664;9.162;2023-03-01T17:24:39;3.30;89.90
6948;DHT22;3513;47.664;9.162;2023-03-01T17:27:05;3.30;89.90
6948;DHT22;3513;47.664;9.162;2023-03-01T17:29:31;3.30;90.00
6948;DHT22;3513;47.664;9.162;2023-03-01T17:31:57;3.30;90.00
6948;DHT22;3513;47.664;9.162;2023-03-01T17:34:23;3.30;90.10
6948;DHT22;3513;47.664;9.162;2023-03-01T17:36:50;3.30;90.30
6948;DHT22;3513;47.664;9.162;2023-03-01T17:39:19;3.30;90.40
6948;DHT22;3513;47.664;9.162;2023-03-01T17:41:50;3.30;90.10
6948;DHT22;3513;47.664;9.162;2023-03-01T17:44:16;3.30;90.20
6948;DHT22;3513;47.664;9.162;2023-03-01T17:46:41;3.30;90.20
6948;DHT22;3513;47.664;9.162;2023-03-01T17:49:07;3.30;90.20
6948;DHT22;3513;47.664;9.162;2023-03-01T17:51:32;3.30;90.20
6948;DHT22;3513;47.664;9.162;2023-03-01T17:53:58;3.30;90.30
6948;DHT22;3513;47.664;9.162;2023-03-01T17:56:23;3.30;90.40
6948;DHT22;3513;47.664;9.162;2023-03-01T17:58:49;3.30;90.40
6948;DHT22;3513;47.664;9.162;2023-03-01T18:01:17;3.30;90.30
6948;DHT22;3513;47.664;9.162;2023-03-01T18:03:43;3.30;90.20
6948;DHT22;3513;47.664;9.162;2023-03-01T18:06:24;3.30;90.30
6948;DHT22;3513;47.664;9.162;2023-03-01T18:08:50;3.30;90.30